createdAt,value
2022-09-13T00:00:47.656Z,11.63
2022-09-13T00:01:48.060Z,11.59
2022-09-13T00:02:47.445Z,11.59
2022-09-13T00:03:47.688Z,11.6
2022-09-13T00:04:47.729Z,11.57
2022-09-13T00:05:47.780Z,11.57
2022-09-13T00:06:47.151Z,11.59
2022-09-13T00:07:47.393Z,11.63
2022-09-13T00:08:47.794Z,11.57
2022-09-13T00:09:47.367Z,11.63
2022-09-13T00:10:47.639Z,11.52
2022-09-13T00:11:47.608Z,11.56
2022-09-13T00:12:47.341Z,11.63
2022-09-13T00:13:47.324Z,11.66
2022-09-13T00:14:47.318Z,11.66
2022-09-13T00:15:47.308Z,11.63
2022-09-13T00:16:47.475Z,11.66
2022-09-13T00:17:47.279Z,11.61
2022-09-13T00:18:47.383Z,11.67
2022-09-13T00:19:47.270Z,11.6
2022-09-13T00:20:47.294Z,11.68
2022-09-13T00:21:47.522Z,11.68
2022-09-13T00:22:46.991Z,11.66
2022-09-13T00:23:47.481Z,11.66
2022-09-13T00:24:46.957Z,11.68
2022-09-13T00:25:47.456Z,11.7
2022-09-13T00:26:47.449Z,11.81
2022-09-13T00:27:47.178Z,11.78
2022-09-13T00:28:47.367Z,11.94
2022-09-13T00:29:47.417Z,11.75
2022-09-13T00:30:47.400Z,11.88
2022-09-13T00:31:47.469Z,11.91
2022-09-13T00:32:47.178Z,11.97
2022-09-13T00:33:47.127Z,12.03
2022-09-13T00:34:47.103Z,11.97
2022-09-13T00:35:46.848Z,11.94
2022-09-13T00:36:47.396Z,12
2022-09-13T00:37:47.432Z,11.94
2022-09-13T00:38:47.083Z,11.94
2022-09-13T00:39:52.215Z,11.97
2022-09-13T00:40:47.290Z,11.95
2022-09-13T00:41:47.045Z,11.89
2022-09-13T00:42:46.772Z,11.91
2022-09-13T00:43:47.134Z,11.91
2022-09-13T00:44:46.737Z,12.03
2022-09-13T00:45:47.204Z,11.94
2022-09-13T00:46:46.973Z,12
2022-09-13T00:47:46.963Z,12.04
2022-09-13T00:48:47.210Z,12.11
2022-09-13T00:49:46.941Z,12.05
2022-09-13T00:50:46.925Z,12.08
2022-09-13T00:51:46.924Z,12.1
2022-09-13T00:52:51.268Z,12.16
2022-09-13T00:53:47.135Z,12.19
2022-09-13T00:54:46.634Z,12.11
2022-09-13T00:55:46.875Z,12.2
2022-09-13T00:56:46.863Z,12.13
2022-09-13T00:57:46.856Z,12.11
2022-09-13T00:58:46.854Z,12.1
2022-09-13T00:59:46.833Z,12.15
2022-09-13T01:00:47.185Z,12.16
2022-09-13T01:01:46.656Z,12.11
2022-09-13T01:02:46.550Z,12.01
2022-09-13T01:03:46.840Z,12.05
2022-09-13T01:04:47.030Z,12.13
2022-09-13T01:05:46.779Z,12.04
2022-09-13T01:06:47.019Z,11.97
2022-09-13T01:07:46.493Z,12.08
2022-09-13T01:08:47.038Z,11.98
2022-09-13T01:09:46.835Z,11.94
2022-09-13T01:10:46.719Z,11.91
2022-09-13T01:11:46.704Z,11.95
2022-09-13T01:12:46.703Z,11.85
2022-09-13T01:13:46.530Z,11.81
2022-09-13T01:14:46.676Z,11.78
2022-09-13T01:15:46.915Z,11.7
2022-09-13T01:16:51.810Z,11.64
2022-09-13T01:17:46.380Z,11.68
2022-09-13T01:18:46.375Z,11.78
2022-09-13T01:19:46.633Z,11.67
2022-09-13T01:20:46.608Z,11.61
2022-09-13T01:21:46.599Z,11.79
2022-09-13T01:22:46.592Z,11.71
2022-09-13T01:23:46.948Z,11.75
2022-09-13T01:24:46.615Z,11.63
2022-09-13T01:25:46.836Z,11.66
2022-09-13T01:26:46.291Z,11.71
2022-09-13T01:27:46.539Z,11.64
2022-09-13T01:28:46.525Z,11.63
2022-09-13T01:29:46.514Z,11.61
2022-09-13T01:30:46.253Z,11.63
2022-09-13T01:31:46.762Z,11.67
2022-09-13T01:32:46.740Z,11.63
2022-09-13T01:34:46.464Z,11.49
2022-09-13T01:35:46.706Z,11.56
2022-09-13T01:36:46.700Z,11.64
2022-09-13T01:37:46.431Z,11.63
2022-09-13T01:38:46.162Z,11.6
2022-09-13T01:39:46.260Z,11.63
2022-09-13T01:40:46.446Z,11.57
2022-09-13T01:41:46.411Z,11.53
2022-09-13T01:42:46.629Z,11.51
2022-09-13T01:43:46.533Z,11.49
2022-09-13T01:44:46.096Z,11.53
2022-09-13T01:45:46.773Z,11.57
2022-09-13T01:46:47.048Z,11.56
2022-09-13T01:47:46.320Z,11.53
2022-09-13T01:48:46.567Z,11.52
2022-09-13T01:49:46.778Z,11.49
2022-09-13T01:50:46.556Z,11.49
2022-09-13T01:51:46.022Z,11.53
2022-09-13T01:52:46.270Z,11.42
2022-09-13T01:53:46.450Z,11.59
2022-09-13T01:54:46.243Z,11.51
2022-09-13T01:55:46.550Z,11.45
2022-09-13T01:56:46.272Z,11.39
2022-09-13T01:57:46.492Z,11.35
2022-09-13T01:58:46.202Z,11.38
2022-09-13T01:59:45.938Z,11.49
2022-09-13T02:00:46.480Z,11.35
2022-09-13T02:01:45.946Z,11.45
2022-09-13T02:02:45.906Z,11.51
2022-09-13T02:03:46.073Z,11.42
2022-09-13T02:04:45.887Z,11.48
2022-09-13T02:05:46.386Z,11.49
2022-09-13T02:06:46.121Z,11.45
2022-09-13T02:07:46.361Z,11.48
2022-09-13T02:08:46.347Z,11.46
2022-09-13T02:09:45.832Z,11.42
2022-09-13T02:10:45.819Z,11.46
2022-09-13T02:11:46.318Z,11.49
2022-09-13T02:12:46.355Z,11.41
2022-09-13T02:13:46.431Z,11.45
2022-09-13T02:14:46.025Z,11.51
2022-09-13T02:15:46.306Z,11.39
2022-09-13T02:16:46.191Z,11.41
2022-09-13T02:17:45.744Z,11.48
2022-09-13T02:18:46.002Z,11.46
2022-09-13T02:19:45.976Z,11.43
2022-09-13T02:20:45.719Z,11.43
2022-09-13T02:21:46.211Z,11.43
2022-09-13T02:22:45.944Z,11.39
2022-09-13T02:23:45.958Z,11.33
2022-09-13T02:24:45.666Z,11.51
2022-09-13T02:25:45.914Z,11.42
2022-09-13T02:26:45.898Z,11.52
2022-09-13T02:27:45.888Z,11.35
2022-09-13T02:28:46.098Z,11.49
2022-09-13T02:29:46.244Z,11.49
2022-09-13T02:30:46.111Z,11.63
2022-09-13T02:31:45.888Z,11.71
2022-09-13T02:32:45.837Z,11.63
2022-09-13T02:33:45.652Z,11.7
2022-09-13T02:34:46.066Z,11.67
2022-09-13T02:35:45.844Z,11.67
2022-09-13T02:36:45.791Z,11.78
2022-09-13T02:37:46.039Z,11.79
2022-09-13T02:38:45.768Z,11.82
2022-09-13T02:39:46.119Z,11.97
2022-09-13T02:40:45.746Z,11.94
2022-09-13T02:41:45.747Z,12.01
2022-09-13T02:42:45.723Z,12.07
2022-09-13T02:43:46.127Z,12
2022-09-13T02:44:45.756Z,12.07
2022-09-13T02:45:45.945Z,12.08
2022-09-13T02:46:45.689Z,12.13
2022-09-13T02:47:45.670Z,12.07
2022-09-13T02:48:45.923Z,12.15
2022-09-13T02:49:45.916Z,12.03
2022-09-13T02:50:45.891Z,12.18
2022-09-13T02:51:45.636Z,12.03
2022-09-13T02:52:45.361Z,12.13
2022-09-13T02:53:45.604Z,12.1
2022-09-13T02:54:45.602Z,12.13
2022-09-13T02:55:45.587Z,12.18
2022-09-13T02:56:45.834Z,12.13
2022-09-13T02:57:45.563Z,12.18
2022-09-13T02:58:45.355Z,12.19
2022-09-13T02:59:45.548Z,12.22
2022-09-13T03:00:45.622Z,12.18
2022-09-13T03:01:45.945Z,12.2
2022-09-13T03:02:45.258Z,12.13
2022-09-13T03:03:45.248Z,12.16
2022-09-13T03:04:45.492Z,12.16
2022-09-13T03:05:45.484Z,12.15
2022-09-13T03:06:45.470Z,12.15
2022-09-13T03:07:45.207Z,12.16
2022-09-13T03:08:45.491Z,12.11
2022-09-13T03:09:45.441Z,12.13
2022-09-13T03:10:45.439Z,12.2
2022-09-13T03:11:45.422Z,12.16
2022-09-13T03:12:45.417Z,12.22
2022-09-13T03:13:45.395Z,12.2
2022-09-13T03:14:45.388Z,12.22
2022-09-13T03:15:45.375Z,12.16
2022-09-13T03:16:45.802Z,12.2
2022-09-13T03:17:45.636Z,12.16
2022-09-13T03:18:45.358Z,12.23
2022-09-13T03:19:45.331Z,12.22
2022-09-13T03:20:45.070Z,12.36
2022-09-13T03:21:45.576Z,12.36
2022-09-13T03:22:45.303Z,12.38
2022-09-13T03:23:45.297Z,12.4
2022-09-13T03:24:45.064Z,12.37
2022-09-13T03:25:45.530Z,12.4
2022-09-13T03:26:45.288Z,12.38
2022-09-13T03:27:45.001Z,12.4
2022-09-13T03:28:45.383Z,12.38
2022-09-13T03:29:45.232Z,12.37
2022-09-13T03:30:45.475Z,12.41
2022-09-13T03:31:45.489Z,12.53
2022-09-13T03:32:45.497Z,12.61
2022-09-13T03:49:36.182Z,12.89
2022-09-13T03:50:35.498Z,12.88
2022-09-13T03:51:35.746Z,12.88
2022-09-13T03:52:35.990Z,12.92
2022-09-13T03:53:35.967Z,12.95
2022-09-13T03:54:35.717Z,12.92
2022-09-13T03:55:35.945Z,12.89
2022-09-13T03:56:35.931Z,12.95
2022-09-13T03:57:35.669Z,12.99
2022-09-13T03:58:35.654Z,13.07
2022-09-13T03:59:35.638Z,13.06
2022-09-13T04:00:35.662Z,13.03
2022-09-13T04:01:36.162Z,13.01
2022-09-13T04:02:36.106Z,12.96
2022-09-13T04:03:35.603Z,12.94
2022-09-13T04:04:35.583Z,12.89
2022-09-13T04:05:35.998Z,12.98
2022-09-13T04:06:35.821Z,12.94
2022-09-13T04:07:35.562Z,12.84
2022-09-13T04:08:35.543Z,12.84
2022-09-13T04:09:35.789Z,12.89
2022-09-13T04:10:35.777Z,12.78
2022-09-13T04:11:35.511Z,12.74
2022-09-13T04:12:35.756Z,12.63
2022-09-13T04:13:35.492Z,12.61
2022-09-13T04:14:35.486Z,12.61
2022-09-13T04:15:35.498Z,12.58
2022-09-13T04:16:35.576Z,12.65
2022-09-13T04:17:35.706Z,12.61
2022-09-13T04:18:35.182Z,12.59
2022-09-13T04:19:35.430Z,12.63
2022-09-13T04:20:35.675Z,12.63
2022-09-13T04:21:35.839Z,12.66
2022-09-13T04:22:35.472Z,12.73
2022-09-13T04:23:35.644Z,12.76
2022-09-13T04:24:35.380Z,12.71
2022-09-13T04:25:35.110Z,12.78
2022-09-13T04:26:35.359Z,12.76
2022-09-13T04:27:35.608Z,12.8
2022-09-13T04:28:35.334Z,12.8
2022-09-13T04:29:35.616Z,12.84
2022-09-13T04:30:37.013Z,12.89
2022-09-13T04:31:35.797Z,12.83
2022-09-13T04:32:35.298Z,12.83
2022-09-13T04:33:35.036Z,12.78
2022-09-13T04:34:35.019Z,12.78
2022-09-13T04:35:35.520Z,12.7
2022-09-13T04:36:35.513Z,12.76
2022-09-13T04:37:35.570Z,12.74
2022-09-13T04:38:35.233Z,12.66
2022-09-13T04:39:35.238Z,12.62
2022-09-13T04:40:35.466Z,12.66
2022-09-13T04:41:35.210Z,12.69
2022-09-13T04:42:35.456Z,12.7
2022-09-13T04:43:34.925Z,12.71
2022-09-13T04:44:35.433Z,12.8
2022-09-13T04:45:35.125Z,12.78
2022-09-13T04:46:34.899Z,12.86
2022-09-13T04:47:35.147Z,12.81
2022-09-13T04:48:35.136Z,12.78
2022-09-13T04:49:35.120Z,12.77
2022-09-13T04:50:35.119Z,12.7
2022-09-13T04:51:35.100Z,12.71
2022-09-13T04:52:35.351Z,12.77
2022-09-13T04:53:35.496Z,12.69
2022-09-13T04:54:35.075Z,12.73
2022-09-13T04:55:35.064Z,12.7
2022-09-13T04:56:35.309Z,12.7
2022-09-13T04:57:35.044Z,12.7
2022-09-13T04:58:35.042Z,12.73
2022-09-13T04:59:34.770Z,12.76
2022-09-13T05:00:34.761Z,12.77
2022-09-13T05:01:34.941Z,12.73
2022-09-13T05:02:35.216Z,12.73
2022-09-13T05:03:34.984Z,12.7
2022-09-13T05:04:34.973Z,12.7
2022-09-13T05:05:34.962Z,12.73
2022-09-13T05:06:34.958Z,12.66
2022-09-13T05:07:34.943Z,12.73
2022-09-13T05:08:34.681Z,12.74
2022-09-13T05:09:35.487Z,12.7
2022-09-13T05:10:34.920Z,12.77
2022-09-13T05:11:34.910Z,12.81
2022-09-13T05:12:34.901Z,12.92
2022-09-13T05:13:34.884Z,12.92
2022-09-13T05:14:34.621Z,12.94
2022-09-13T05:15:34.611Z,12.98
2022-09-13T05:16:34.867Z,12.99
2022-09-13T05:17:34.843Z,12.95
2022-09-13T05:18:35.093Z,13.1
2022-09-13T05:19:34.826Z,13.06
2022-09-13T05:20:34.819Z,13.11
2022-09-13T05:21:35.062Z,13.11
2022-09-13T05:22:34.798Z,13.1
2022-09-13T05:23:34.791Z,13.06
2022-09-13T05:24:35.039Z,13.13
2022-09-13T05:25:35.189Z,13.13
2022-09-13T05:26:34.504Z,13.24
2022-09-13T05:27:34.745Z,13.2
2022-09-13T05:28:34.484Z,13.35
2022-09-13T05:29:34.997Z,13.39
2022-09-13T05:30:36.724Z,13.44
2022-09-13T05:31:34.875Z,13.47
2022-09-13T05:32:34.710Z,13.5
2022-09-13T05:33:34.692Z,13.69
2022-09-13T05:34:34.680Z,13.75
2022-09-13T05:35:34.930Z,13.68
2022-09-13T05:36:34.406Z,13.73
2022-09-13T05:37:34.661Z,13.79
2022-09-13T05:38:34.644Z,13.95
2022-09-13T05:40:12.797Z,14.02
2022-09-13T05:40:34.721Z,14.09
2022-09-13T05:41:35.126Z,14.09
2022-09-13T05:42:34.606Z,14.09
2022-09-13T05:43:34.598Z,14.24
2022-09-13T05:44:34.592Z,14.28
2022-09-13T05:45:34.338Z,14.38
2022-09-13T05:46:34.804Z,14.41
2022-09-13T05:47:34.569Z,14.38
2022-09-13T05:48:34.811Z,14.42
2022-09-13T05:49:35.532Z,14.56
2022-09-13T05:51:01.744Z,14.48
2022-09-13T05:51:34.528Z,14.51
2022-09-13T05:52:34.524Z,14.6
2022-09-13T05:53:34.513Z,14.69
2022-09-13T05:54:34.505Z,14.69
2022-09-13T05:55:34.750Z,14.69
2022-09-13T05:56:34.738Z,14.69
2022-09-13T05:57:34.843Z,14.79
2022-09-13T05:58:34.464Z,14.87
2022-09-13T05:59:34.709Z,14.86
2022-09-13T06:00:34.700Z,14.93
2022-09-13T06:01:34.739Z,15.01
2022-09-13T06:02:34.571Z,14.94
2022-09-13T06:03:34.433Z,15.04
2022-09-13T06:04:34.435Z,15.05
2022-09-13T06:05:36.247Z,15.04
2022-09-13T06:06:34.137Z,15.05
2022-09-13T06:07:34.386Z,15.08
2022-09-13T06:08:34.380Z,15.18
2022-09-13T06:09:34.367Z,15.22
2022-09-13T06:10:34.361Z,15.18
2022-09-13T06:11:34.627Z,15.25
2022-09-13T06:12:34.341Z,15.26
2022-09-13T06:13:34.658Z,15.25
2022-09-13T06:14:34.332Z,15.3
2022-09-13T06:15:34.318Z,15.27
2022-09-13T06:16:34.690Z,15.37
2022-09-13T06:17:34.298Z,15.37
2022-09-13T06:18:34.295Z,15.33
2022-09-13T06:19:34.538Z,15.43
2022-09-13T06:20:34.286Z,15.31
2022-09-13T06:21:34.269Z,15.34
2022-09-13T06:22:34.277Z,15.41
2022-09-13T06:23:34.503Z,15.44
2022-09-13T06:24:33.989Z,15.44
2022-09-13T06:25:34.490Z,15.52
2022-09-13T06:26:33.974Z,15.53
2022-09-13T06:27:34.473Z,15.52
2022-09-13T06:28:39.956Z,15.59
2022-09-13T06:29:34.565Z,15.75
2022-09-13T06:30:34.197Z,15.77
2022-09-13T06:31:34.372Z,15.88
2022-09-13T06:32:34.439Z,15.83
2022-09-13T06:33:33.923Z,15.89
2022-09-13T06:34:36.349Z,16.06
2022-09-13T06:35:34.409Z,16.1
2022-09-13T06:36:33.906Z,16.08
2022-09-13T06:37:34.137Z,16.16
2022-09-13T06:38:34.389Z,16.21
2022-09-13T06:39:34.392Z,16.17
2022-09-13T06:40:34.155Z,16.29
2022-09-13T06:41:34.121Z,16.27
2022-09-13T06:42:34.106Z,16.22
2022-09-13T06:43:34.094Z,16.33
2022-09-13T06:44:34.136Z,16.27
2022-09-13T06:45:34.105Z,16.33
2022-09-13T06:46:34.367Z,16.3
2022-09-13T06:47:33.807Z,16.32
2022-09-13T06:48:34.317Z,16.4
2022-09-13T06:49:34.045Z,16.3
2022-09-13T06:50:34.047Z,16.3
2022-09-13T06:51:34.038Z,16.27
2022-09-13T06:52:34.290Z,16.27
2022-09-13T06:53:33.781Z,16.32
2022-09-13T06:54:33.763Z,16.32
2022-09-13T06:55:34.010Z,16.27
2022-09-13T06:56:34.012Z,16.22
2022-09-13T06:57:34.251Z,16.25
2022-09-13T06:58:34.241Z,16.26
2022-09-13T06:59:33.978Z,16.17
2022-09-13T07:00:34.430Z,16.14
2022-09-13T07:01:34.590Z,16.25
2022-09-13T07:02:33.704Z,16.17
2022-09-13T07:03:34.216Z,16.14
2022-09-13T07:04:34.215Z,16.16
2022-09-13T07:05:33.935Z,16.22
2022-09-13T07:06:34.198Z,16.22
2022-09-13T07:07:33.927Z,16.11
2022-09-13T07:08:34.166Z,16.25
2022-09-13T07:09:33.907Z,16.27
2022-09-13T07:10:34.153Z,16.29
2022-09-13T07:11:33.634Z,16.4
2022-09-13T07:12:33.887Z,16.27
2022-09-13T07:13:33.875Z,16.4
2022-09-13T07:14:33.617Z,16.51
2022-09-13T07:15:33.932Z,16.55
2022-09-13T07:16:33.994Z,16.66
2022-09-13T07:17:36.116Z,16.74
2022-09-13T07:18:33.601Z,16.74
2022-09-13T07:19:33.594Z,16.87
2022-09-13T07:20:33.576Z,16.9
2022-09-13T07:21:33.897Z,16.99
2022-09-13T07:22:33.818Z,17.05
2022-09-13T07:23:33.807Z,17.05
2022-09-13T07:24:33.809Z,17.12
2022-09-13T07:25:33.797Z,17.21
2022-09-13T07:26:34.039Z,17.32
2022-09-13T07:27:33.785Z,17.49
2022-09-13T07:28:39.239Z,17.52
2022-09-13T07:29:33.773Z,17.58
2022-09-13T07:30:33.505Z,17.66
2022-09-13T07:31:34.001Z,17.83
2022-09-13T07:32:34.227Z,17.84
2022-09-13T07:33:33.864Z,17.8
2022-09-13T07:34:33.743Z,17.8
2022-09-13T07:35:33.727Z,17.83
2022-09-13T07:36:33.469Z,17.81
2022-09-13T07:37:33.720Z,17.86
2022-09-13T07:38:33.713Z,17.87
2022-09-13T07:39:33.710Z,17.81
2022-09-13T07:40:33.959Z,17.88
2022-09-13T07:41:33.694Z,17.87
2022-09-13T07:42:33.429Z,17.92
2022-09-13T07:43:33.685Z,18.01
2022-09-13T07:44:33.674Z,18.16
2022-09-13T07:45:33.929Z,18.26
2022-09-13T07:46:33.798Z,18.5
2022-09-13T07:47:33.664Z,18.6
2022-09-13T07:48:38.327Z,18.71
2022-09-13T07:49:34.011Z,18.75
2022-09-13T07:50:33.655Z,18.79
2022-09-13T07:51:33.646Z,18.81
2022-09-13T07:52:33.632Z,18.81
2022-09-13T07:53:33.879Z,18.9
2022-09-13T07:54:33.366Z,18.99
2022-09-13T07:55:33.361Z,19.05
2022-09-13T07:56:33.610Z,19.07
2022-09-13T07:57:33.603Z,19.12
2022-09-13T07:58:33.598Z,19.06
2022-09-13T07:59:34.927Z,19.06
2022-09-13T08:00:33.603Z,18.94
2022-09-13T08:01:33.757Z,18.94
2022-09-13T08:02:34.069Z,18.89
2022-09-13T08:03:33.835Z,18.79
2022-09-13T08:04:39.040Z,18.66
2022-09-13T08:05:33.585Z,18.61
2022-09-13T08:06:33.555Z,18.71
2022-09-13T08:07:33.806Z,18.69
2022-09-13T08:08:33.294Z,18.72
2022-09-13T08:09:33.543Z,18.71
2022-09-13T08:10:33.310Z,18.79
2022-09-13T08:11:33.788Z,18.87
2022-09-13T08:12:33.282Z,19
2022-09-13T08:13:33.776Z,18.96
2022-09-13T08:14:33.262Z,19
2022-09-13T08:15:33.725Z,19.06
2022-09-13T08:16:33.759Z,19.09
2022-09-13T08:17:33.500Z,18.97
2022-09-13T08:18:33.755Z,19.02
2022-09-13T08:19:33.747Z,18.86
2022-09-13T08:20:33.878Z,18.89
2022-09-13T08:21:33.592Z,18.78
2022-09-13T08:22:33.232Z,18.69
2022-09-13T08:23:33.218Z,18.75
2022-09-13T08:24:33.721Z,18.6
2022-09-13T08:25:33.204Z,18.63
2022-09-13T08:26:33.719Z,18.68
2022-09-13T08:27:33.705Z,18.65
2022-09-13T08:28:33.191Z,18.63
2022-09-13T08:29:33.445Z,18.63
2022-09-13T08:30:33.444Z,18.71
2022-09-13T08:31:33.589Z,18.59
2022-09-13T08:32:33.173Z,18.63
2022-09-13T08:33:33.431Z,18.63
2022-09-13T08:34:33.671Z,18.59
2022-09-13T08:35:33.464Z,18.56
2022-09-13T08:36:33.799Z,18.63
2022-09-13T08:37:33.679Z,18.66
2022-09-13T08:38:33.150Z,18.54
2022-09-13T08:39:36.034Z,18.5
2022-09-13T08:40:33.135Z,18.39
2022-09-13T08:41:33.132Z,18.39
2022-09-13T08:42:33.375Z,18.34
2022-09-13T08:43:33.371Z,18.27
2022-09-13T08:44:33.379Z,18.24
2022-09-13T08:45:33.617Z,18.19
2022-09-13T08:46:33.946Z,18.26
2022-09-13T08:47:33.603Z,18.26
2022-09-13T08:48:33.351Z,18.2
2022-09-13T08:49:33.602Z,18.2
2022-09-13T08:50:33.337Z,18.26
2022-09-13T08:51:33.332Z,18.26
2022-09-13T08:52:33.720Z,18.29
2022-09-13T08:53:33.348Z,18.35
2022-09-13T08:54:33.322Z,18.32
2022-09-13T08:55:33.057Z,18.5
2022-09-13T08:56:33.561Z,18.61
2022-09-13T08:57:33.046Z,18.68
2022-09-13T08:58:33.295Z,18.79
2022-09-13T08:59:33.296Z,18.9
2022-09-13T09:00:33.537Z,19.24
2022-09-13T09:01:33.515Z,19.37
2022-09-13T09:02:33.255Z,19.52
2022-09-13T09:03:33.014Z,19.5
2022-09-13T09:04:33.273Z,19.46
2022-09-13T09:05:33.005Z,19.53
2022-09-13T09:06:33.515Z,19.61
2022-09-13T09:07:33.510Z,19.68
2022-09-13T09:08:33.575Z,19.7
2022-09-13T09:09:33.266Z,19.92
2022-09-13T09:10:32.993Z,20.01
2022-09-13T09:11:33.488Z,20.07
2022-09-13T09:12:33.227Z,20.1
2022-09-13T09:13:33.224Z,20.22
2022-09-13T09:14:33.479Z,20.12
2022-09-13T09:15:33.350Z,20.27
2022-09-13T09:16:32.952Z,20.3
2022-09-13T09:17:32.976Z,20.29
2022-09-13T09:18:33.200Z,20.27
2022-09-13T09:19:33.203Z,20.19
2022-09-13T09:20:33.195Z,20.16
2022-09-13T09:21:33.477Z,20.16
2022-09-13T09:22:33.187Z,20.2
2022-09-13T09:23:33.210Z,20.15
2022-09-13T09:24:33.234Z,20.02
2022-09-13T09:25:33.460Z,20.11
2022-09-13T09:26:33.164Z,19.97
2022-09-13T09:27:33.426Z,19.97
2022-09-13T09:28:33.188Z,19.97
2022-09-13T09:29:33.415Z,19.92
2022-09-13T09:30:33.563Z,20.04
2022-09-13T09:31:33.431Z,20.08
2022-09-13T09:32:33.150Z,20.26
2022-09-13T09:33:33.403Z,20.46
2022-09-13T09:34:33.153Z,20.56
2022-09-13T09:35:33.395Z,20.58
2022-09-13T09:36:33.383Z,20.53
2022-09-13T09:37:32.871Z,20.56
2022-09-13T09:38:33.124Z,20.53
2022-09-13T09:39:32.866Z,20.53
2022-09-13T09:40:36.718Z,20.56
2022-09-13T09:41:33.481Z,20.56
2022-09-13T09:42:33.399Z,20.56
2022-09-13T09:43:33.120Z,20.53
2022-09-13T09:44:33.358Z,20.49
2022-09-13T09:45:33.357Z,20.38
2022-09-13T09:46:33.373Z,20.34
2022-09-13T09:47:34.484Z,20.25
2022-09-13T09:48:33.088Z,20.25
2022-09-13T09:49:33.082Z,20.27
2022-09-13T09:50:33.078Z,20.32
2022-09-13T09:51:33.333Z,20.38
2022-09-13T09:52:33.326Z,20.42
2022-09-13T09:53:38.868Z,20.56
2022-09-13T09:54:32.811Z,20.63
2022-09-13T09:55:33.062Z,20.72
2022-09-13T09:56:33.444Z,20.78
2022-09-13T09:57:33.341Z,20.74
2022-09-13T09:58:33.059Z,20.93
2022-09-13T09:59:33.049Z,20.83
2022-09-13T10:00:33.052Z,21
2022-09-13T10:01:33.328Z,21.01
2022-09-13T10:02:33.032Z,20.98
2022-09-13T10:03:33.050Z,21.06
2022-09-13T10:04:33.286Z,21.01
2022-09-13T10:05:33.031Z,20.9
2022-09-13T10:06:33.315Z,20.94
2022-09-13T10:07:33.021Z,20.83
2022-09-13T10:08:33.025Z,20.74
2022-09-13T10:09:33.268Z,20.71
2022-09-13T10:10:33.015Z,20.6
2022-09-13T10:11:32.753Z,20.57
2022-09-13T10:12:33.382Z,20.67
2022-09-13T10:13:36.808Z,20.61
2022-09-13T10:14:33.001Z,20.57
2022-09-13T10:15:33.253Z,20.51
2022-09-13T10:16:33.528Z,20.57
2022-09-13T10:17:32.988Z,20.49
2022-09-13T10:18:49.589Z,20.42
2022-09-13T10:19:32.982Z,20.4
2022-09-13T10:20:32.986Z,20.41
2022-09-13T10:21:32.971Z,20.44
2022-09-13T10:22:33.233Z,20.37
2022-09-13T10:23:32.969Z,20.32
2022-09-13T10:24:33.223Z,20.25
2022-09-13T10:25:32.977Z,20.27
2022-09-13T10:26:32.701Z,20.35
2022-09-13T10:27:33.209Z,20.27
2022-09-13T10:28:33.265Z,20.41
2022-09-13T10:29:33.462Z,20.61
2022-09-13T10:30:33.127Z,20.74
2022-09-13T10:31:32.940Z,20.88
2022-09-13T10:32:33.197Z,21.16
2022-09-13T10:33:32.679Z,21.25
2022-09-13T10:34:33.191Z,21.34
2022-09-13T10:35:33.184Z,21.43
2022-09-13T10:36:56.429Z,21.51
2022-09-13T10:37:32.922Z,21.53
2022-09-13T10:38:33.173Z,21.51
2022-09-13T10:39:32.915Z,21.64
2022-09-13T10:40:32.759Z,21.68
2022-09-13T10:41:32.930Z,21.85
2022-09-13T10:42:32.907Z,21.78
2022-09-13T10:43:32.904Z,21.76
2022-09-13T10:44:33.201Z,21.7
2022-09-13T10:45:33.177Z,21.77
2022-09-13T10:46:32.640Z,21.94
2022-09-13T10:47:33.147Z,22.04
2022-09-13T10:48:32.891Z,22.04
2022-09-13T10:49:32.884Z,22.02
2022-09-13T10:50:33.131Z,22.14
2022-09-13T10:51:33.141Z,22.18
2022-09-13T10:52:33.137Z,22.22
2022-09-13T10:53:33.132Z,22.36
2022-09-13T10:54:32.613Z,22.38
2022-09-13T10:55:33.127Z,22.39
2022-09-13T10:56:32.614Z,22.42
2022-09-13T10:57:32.861Z,22.44
2022-09-13T10:58:32.860Z,22.39
2022-09-13T10:59:33.134Z,22.39
2022-09-13T11:00:32.917Z,22.46
2022-09-13T11:01:35.842Z,22.45
2022-09-13T11:02:33.105Z,22.54
2022-09-13T11:03:32.850Z,22.52
2022-09-13T11:04:33.462Z,22.54
2022-09-13T11:05:33.099Z,22.52
2022-09-13T11:06:32.843Z,22.54
2022-09-13T11:07:32.842Z,22.55
2022-09-13T11:08:33.096Z,22.6
2022-09-13T11:09:32.858Z,22.61
2022-09-13T11:10:32.834Z,22.59
2022-09-13T11:11:33.085Z,22.45
2022-09-13T11:12:33.081Z,22.42
2022-09-13T11:13:32.575Z,22.44
2022-09-13T11:14:33.084Z,22.46
2022-09-13T11:15:33.079Z,22.48
2022-09-13T11:16:33.277Z,22.41
2022-09-13T11:17:33.105Z,22.39
2022-09-13T11:18:32.822Z,22.42
2022-09-13T11:19:32.822Z,22.38
2022-09-13T11:20:32.817Z,22.3
2022-09-13T11:21:33.076Z,22.44
2022-09-13T11:22:32.564Z,22.59
2022-09-13T11:23:32.807Z,22.6
2022-09-13T11:24:32.805Z,22.64
2022-09-13T11:25:32.560Z,22.78
2022-09-13T11:26:36.108Z,22.75
2022-09-13T11:27:32.802Z,22.75
2022-09-13T11:28:32.795Z,22.67
2022-09-13T11:29:33.057Z,22.67
2022-09-13T11:30:34.752Z,22.63
2022-09-13T11:31:33.016Z,22.66
2022-09-13T11:32:33.196Z,22.64
2022-09-13T11:33:33.157Z,22.75
2022-09-13T11:34:32.791Z,22.73
2022-09-13T11:35:32.852Z,22.91
2022-09-13T11:36:32.788Z,23.01
2022-09-13T11:37:32.782Z,23
2022-09-13T11:38:33.061Z,23.14
2022-09-13T11:39:33.049Z,23.1
2022-09-13T11:40:33.034Z,23.22
2022-09-13T11:41:32.822Z,23.26
2022-09-13T11:42:32.778Z,23.26
2022-09-13T11:43:33.027Z,23.35
2022-09-13T11:44:33.065Z,23.44
2022-09-13T11:45:33.226Z,23.5
2022-09-13T11:46:33.025Z,23.53
2022-09-13T11:47:32.767Z,23.55
2022-09-13T11:48:33.115Z,23.59
2022-09-13T11:49:33.047Z,23.63
2022-09-13T11:50:32.774Z,23.66
2022-09-13T11:51:33.016Z,23.67
2022-09-13T11:52:33.023Z,23.57
2022-09-13T11:53:34.587Z,23.55
2022-09-13T11:54:32.775Z,23.59
2022-09-13T11:55:32.760Z,23.5
2022-09-13T11:56:32.761Z,23.52
2022-09-13T11:57:32.759Z,23.48
2022-09-13T11:58:32.755Z,23.5
2022-09-13T11:59:33.009Z,23.47
2022-09-13T12:00:33.009Z,23.42
2022-09-13T12:01:32.757Z,23.29
2022-09-13T12:02:33.317Z,23.22
2022-09-13T12:03:33.232Z,23.28
2022-09-13T12:04:38.452Z,23.32
2022-09-13T12:05:32.779Z,23.25
2022-09-13T12:06:33.003Z,23.21
2022-09-13T12:07:32.754Z,23.25
2022-09-13T12:08:33.002Z,23.14
2022-09-13T12:09:33.012Z,23.14
2022-09-13T12:10:32.744Z,23.04
2022-09-13T12:11:32.744Z,22.96
2022-09-13T12:12:32.742Z,22.86
2022-09-13T12:13:32.995Z,22.64
2022-09-13T12:14:32.993Z,22.61
2022-09-13T12:15:33.095Z,22.51
2022-09-13T12:16:38.265Z,22.49
2022-09-13T12:17:32.733Z,22.41
2022-09-13T12:18:32.735Z,22.39
2022-09-13T12:19:32.474Z,22.27
2022-09-13T12:20:32.999Z,22.18
2022-09-13T12:21:32.840Z,22.11
2022-09-13T12:22:35.516Z,22.2
2022-09-13T12:23:32.734Z,22.07
2022-09-13T12:24:32.725Z,22.02
2022-09-13T12:25:32.739Z,22.07
2022-09-13T12:26:32.723Z,22.04
2022-09-13T12:27:35.353Z,21.96
2022-09-13T12:28:32.968Z,21.93
2022-09-13T12:29:32.967Z,21.93
2022-09-13T12:30:32.716Z,22.02
2022-09-13T12:31:33.085Z,21.9
2022-09-13T12:32:32.703Z,21.94
2022-09-13T12:33:32.707Z,21.96
2022-09-13T12:34:32.703Z,21.93
2022-09-13T12:35:32.970Z,21.82
2022-09-13T12:36:33.007Z,21.76
2022-09-13T12:37:32.982Z,21.78
2022-09-13T12:38:36.259Z,21.78
2022-09-13T12:39:32.695Z,21.82
2022-09-13T12:40:32.435Z,21.8
2022-09-13T12:41:32.690Z,21.76
2022-09-13T12:42:32.684Z,21.89
2022-09-13T12:43:32.730Z,21.86
2022-09-13T12:44:37.969Z,21.97
2022-09-13T12:45:32.834Z,21.93
2022-09-13T12:46:32.677Z,21.82
2022-09-13T12:47:32.674Z,21.92
2022-09-13T12:48:32.925Z,22.05
2022-09-13T12:49:32.923Z,22.05
2022-09-13T12:50:48.327Z,22.14
2022-09-13T12:51:32.412Z,22.24
2022-09-13T12:52:33.074Z,22.27
2022-09-13T12:53:32.749Z,22.39
2022-09-13T12:54:32.913Z,22.44
2022-09-13T12:55:50.420Z,22.51
2022-09-13T12:56:32.661Z,22.63
2022-09-13T12:57:32.406Z,22.63
2022-09-13T12:58:32.394Z,22.86
2022-09-13T12:59:32.652Z,22.97
2022-09-13T13:00:32.926Z,22.99
2022-09-13T13:01:33.164Z,23.01
2022-09-13T13:02:32.638Z,22.89
2022-09-13T13:03:32.394Z,22.89
2022-09-13T13:04:32.640Z,22.81
2022-09-13T13:05:32.639Z,22.7
2022-09-13T13:06:32.897Z,22.64
2022-09-13T13:07:32.639Z,22.6
2022-09-13T13:08:32.723Z,22.52
2022-09-13T13:09:33.914Z,22.52
2022-09-13T13:10:32.684Z,22.55
2022-09-13T13:11:32.917Z,22.42
2022-09-13T13:12:32.642Z,22.46